createdAt,value
2023-01-06T00:02:01.734Z,101503.47
2023-01-06T00:04:33.379Z,101505.09
2023-01-06T00:07:05.221Z,101508.97
2023-01-06T00:09:36.808Z,101519.50
2023-01-06T00:12:08.631Z,101517.03
2023-01-06T00:14:42.667Z,101513.56
2023-01-06T00:17:14.587Z,101513.19
2023-01-06T00:19:46.117Z,101510.03
2023-01-06T00:22:17.936Z,101509.56
2023-01-06T00:24:49.428Z,101519.75
2023-01-06T00:27:21.353Z,101516.91
2023-01-06T00:29:52.899Z,101516.13
2023-01-06T00:32:24.777Z,101506.56
2023-01-06T00:34:56.279Z,101507.09
2023-01-06T00:37:28.153Z,101492.63
2023-01-06T00:39:59.696Z,101488.19
2023-01-06T00:42:31.554Z,101500.31
2023-01-06T00:45:03.063Z,101498.38
2023-01-06T00:47:34.951Z,101484.19
2023-01-06T00:50:06.467Z,101492.94
2023-01-06T00:52:38.344Z,101497.75
2023-01-06T00:55:09.945Z,101500.75
2023-01-06T00:57:42.020Z,101496.03
2023-01-06T01:00:13.604Z,101500.91
2023-01-06T01:02:45.525Z,101509.13
2023-01-06T01:05:17.198Z,101503.03
2023-01-06T01:07:48.755Z,101508.38
2023-01-06T01:10:20.306Z,101509.56
2023-01-06T01:12:52.162Z,101504.50
2023-01-06T01:15:23.658Z,101499.94
2023-01-06T01:17:55.463Z,101491.91
2023-01-06T01:20:26.976Z,101492.47
2023-01-06T01:22:58.747Z,101493.19
2023-01-06T01:25:30.256Z,101490.06
2023-01-06T01:28:02.282Z,101481.00
2023-01-06T01:30:33.786Z,101476.56
2023-01-06T01:33:05.648Z,101477.72
2023-01-06T01:35:37.184Z,101470.16
2023-01-06T01:38:08.809Z,101470.00
2023-01-06T01:40:40.321Z,101470.00
2023-01-06T01:43:12.377Z,101468.03
2023-01-06T01:45:45.306Z,101471.88
2023-01-06T01:48:16.826Z,101470.84
2023-01-06T01:50:48.342Z,101473.47
2023-01-06T01:53:20.309Z,101477.97
2023-01-06T01:55:51.858Z,101467.25
2023-01-06T01:58:23.744Z,101465.97
2023-01-06T02:00:55.244Z,101464.66
2023-01-06T02:03:27.250Z,101460.69
2023-01-06T02:05:58.842Z,101459.22
2023-01-06T02:08:30.686Z,101456.41
2023-01-06T02:11:02.207Z,101448.50
2023-01-06T02:13:34.068Z,101451.78
2023-01-06T02:16:05.700Z,101462.19
2023-01-06T02:18:37.533Z,101462.69
2023-01-06T02:21:09.071Z,101452.47
2023-01-06T02:23:40.996Z,101438.44
2023-01-06T02:26:12.549Z,101438.78
2023-01-06T02:28:44.522Z,101437.94
2023-01-06T02:31:16.430Z,101435.31
2023-01-06T02:33:48.064Z,101429.72
2023-01-06T02:36:19.661Z,101431.03
2023-01-06T02:38:51.130Z,101431.34
2023-01-06T02:41:22.966Z,101434.66
2023-01-06T02:43:54.508Z,101428.53
2023-01-06T02:46:26.553Z,101427.72
2023-01-06T02:48:58.070Z,101425.56
2023-01-06T02:51:29.983Z,101421.09
2023-01-06T02:54:01.549Z,101413.34
2023-01-06T02:56:33.295Z,101405.09
2023-01-06T02:59:04.822Z,101415.19
2023-01-06T03:01:36.854Z,101415.81
2023-01-06T03:04:08.466Z,101412.19
2023-01-06T03:06:44.987Z,101424.56
2023-01-06T03:09:16.475Z,101412.84
2023-01-06T03:11:48.605Z,101414.00
2023-01-06T03:14:20.111Z,101405.28
2023-01-06T03:16:51.939Z,101403.63
2023-01-06T03:19:23.516Z,101406.25
2023-01-06T03:21:55.531Z,101397.69
2023-01-06T03:24:27.430Z,101387.13
2023-01-06T03:26:59.483Z,101396.69
2023-01-06T03:29:31.003Z,101388.09
2023-01-06T03:32:02.880Z,101382.84
2023-01-06T03:34:34.897Z,101384.97
2023-01-06T03:37:06.559Z,101381.03
2023-01-06T03:39:38.082Z,101379.88
2023-01-06T03:42:36.218Z,101373.94
2023-01-06T03:45:08.227Z,101367.66
2023-01-06T03:47:40.102Z,101365.03
2023-01-06T03:50:11.638Z,101365.69
2023-01-06T03:52:43.596Z,101363.88
2023-01-06T03:55:15.122Z,101361.06
2023-01-06T03:57:47.047Z,101358.44
2023-01-06T04:00:18.568Z,101348.69
2023-01-06T04:02:50.466Z,101342.09
2023-01-06T04:05:21.980Z,101345.56
2023-01-06T04:07:53.620Z,101346.72
2023-01-06T04:10:25.134Z,101346.72
2023-01-06T04:12:56.748Z,101346.88
2023-01-06T04:15:31.388Z,101342.25
2023-01-06T04:18:02.891Z,101349.34
2023-01-06T04:20:34.813Z,101338.28
2023-01-06T04:23:06.359Z,101337.31
2023-01-06T04:25:38.218Z,101342.41
2023-01-06T04:28:09.815Z,101332.06
2023-01-06T04:30:41.821Z,101333.00
2023-01-06T04:33:13.364Z,101326.91
2023-01-06T04:35:45.480Z,101324.47
2023-01-06T04:38:16.960Z,101322.81
2023-01-06T04:40:48.770Z,101319.34
2023-01-06T04:43:20.423Z,101312.09
2023-01-06T04:45:52.157Z,101306.63
2023-01-06T04:48:23.767Z,101306.47
2023-01-06T04:50:55.754Z,101303.50
2023-01-06T04:53:27.593Z,101305.66
2023-01-06T04:55:59.141Z,101294.91
2023-01-06T04:58:30.926Z,101289.81
2023-01-06T05:01:02.513Z,101286.00
2023-01-06T05:03:36.342Z,101285.19
2023-01-06T05:06:10.777Z,101267.69
2023-01-06T05:08:42.622Z,101279.56
2023-01-06T05:11:14.186Z,101272.66
2023-01-06T05:13:46.002Z,101261.09
2023-01-06T05:16:17.586Z,101270.13
2023-01-06T05:18:49.452Z,101259.09
2023-01-06T05:21:20.984Z,101250.84
2023-01-06T05:23:52.786Z,101258.94
2023-01-06T05:26:24.307Z,101259.75
2023-01-06T05:28:56.215Z,101262.72
2023-01-06T05:31:27.728Z,101251.81
2023-01-06T05:33:59.589Z,101258.44
2023-01-06T05:36:31.119Z,101252.47
2023-01-06T05:39:02.920Z,101252.47
2023-01-06T05:41:34.446Z,101247.06
2023-01-06T05:44:06.305Z,101237.16
2023-01-06T05:46:37.810Z,101237.31
2023-01-06T05:49:09.773Z,101230.72
2023-01-06T05:51:41.297Z,101218.34
2023-01-06T05:54:13.226Z,101220.00
2023-01-06T05:56:44.768Z,101210.59
2023-01-06T05:59:16.587Z,101221.31
2023-01-06T06:01:48.399Z,101214.03
2023-01-06T06:04:20.265Z,101219.16
2023-01-06T06:06:51.818Z,101219.16
2023-01-06T06:09:23.321Z,101210.22
2023-01-06T06:11:55.150Z,101208.88
2023-01-06T06:14:26.806Z,101212.66
2023-01-06T06:16:58.691Z,101211.03
2023-01-06T06:19:30.213Z,101218.28
2023-01-06T06:22:02.034Z,101210.69
2023-01-06T06:24:33.621Z,101200.97
2023-01-06T06:27:05.588Z,101205.41
2023-01-06T06:29:37.134Z,101202.94
2023-01-06T06:32:09.023Z,101200.31
2023-01-06T06:34:40.703Z,101195.50
2023-01-06T06:37:12.676Z,101193.34
2023-01-06T06:39:44.620Z,101182.28
2023-01-06T06:42:16.121Z,101181.94
2023-01-06T06:44:48.094Z,101183.94
2023-01-06T06:47:19.666Z,101178.47
2023-01-06T06:49:51.673Z,101175.66
2023-01-06T06:52:23.194Z,101173.00
2023-01-06T06:54:55.083Z,101176.16
2023-01-06T06:57:26.598Z,101167.91
2023-01-06T06:59:58.140Z,101177.81
2023-01-06T07:02:30.303Z,101170.72
2023-01-06T07:05:03.621Z,101171.19
2023-01-06T07:07:35.427Z,101166.56
2023-01-06T07:10:07.520Z,101156.50
2023-01-06T07:12:39.199Z,101155.69
2023-01-06T07:15:10.752Z,101159.94
2023-01-06T07:17:42.258Z,101159.75
2023-01-06T07:20:13.798Z,101159.75
2023-01-06T07:22:45.273Z,101158.94
2023-01-06T07:25:17.205Z,101153.94
2023-01-06T07:27:48.797Z,101163.34
2023-01-06T07:30:20.313Z,101167.59
2023-01-06T07:32:51.800Z,101169.94
2023-01-06T07:35:23.297Z,101174.88
2023-01-06T07:37:55.840Z,101169.53
2023-01-06T07:40:28.945Z,101160.47
2023-01-06T07:43:00.435Z,101162.25
2023-01-06T07:45:32.262Z,101155.31
2023-01-06T07:48:03.802Z,101149.78
2023-01-06T07:50:35.355Z,101168.00
2023-01-06T07:53:06.924Z,101169.41
2023-01-06T07:55:38.587Z,101165.13
2023-01-06T07:58:10.222Z,101166.88
2023-01-06T08:00:42.211Z,101173.88
2023-01-06T08:03:13.822Z,101174.47
2023-01-06T08:05:45.712Z,101171.63
2023-01-06T08:08:17.276Z,101151.56
2023-01-06T08:10:49.376Z,101154.09
2023-01-06T08:13:20.915Z,101150.94
2023-01-06T08:15:52.906Z,101148.81
2023-01-06T08:18:24.468Z,101146.63
2023-01-06T08:20:56.514Z,101143.28
2023-01-06T08:23:28.060Z,101135.97
2023-01-06T08:25:59.989Z,101137.81
2023-01-06T08:28:31.643Z,101136.63
2023-01-06T08:31:03.852Z,101135.81
2023-01-06T08:33:35.489Z,101117.56
2023-01-06T08:36:07.454Z,101116.97
2023-01-06T08:38:39.079Z,101109.00
2023-01-06T08:41:11.080Z,101116.75
2023-01-06T08:43:44.782Z,101118.84
2023-01-06T08:46:17.148Z,101125.69
2023-01-06T08:48:49.192Z,101123.50
2023-01-06T08:51:21.127Z,101113.75
2023-01-06T08:53:53.002Z,101099.69
2023-01-06T08:56:24.567Z,101087.28
2023-01-06T08:58:57.732Z,101092.19
2023-01-06T09:01:29.399Z,100842.91
2023-01-06T09:04:01.294Z,101085.06
2023-01-06T09:06:32.946Z,101084.81
2023-01-06T09:09:05.151Z,101088.81
2023-01-06T09:11:36.756Z,101093.59
2023-01-06T09:14:08.607Z,100854.16
2023-01-06T09:16:40.219Z,101103.28
2023-01-06T09:19:12.045Z,101107.09
2023-01-06T09:21:43.606Z,101118.59
2023-01-06T09:24:15.715Z,101115.78
2023-01-06T09:26:47.273Z,101105.91
2023-01-06T09:29:19.170Z,101088.81
2023-01-06T09:31:50.777Z,101091.72
2023-01-06T09:34:22.689Z,101081.94
2023-01-06T09:36:54.305Z,101079.84
2023-01-06T09:39:26.183Z,101086.34
2023-01-06T09:41:57.719Z,101086.19
2023-01-06T09:44:30.354Z,101076.34
2023-01-06T09:47:01.966Z,101065.75
2023-01-06T09:49:33.839Z,101068.47
2023-01-06T09:52:05.382Z,101056.03
2023-01-06T09:54:37.188Z,101060.88
2023-01-06T09:57:08.724Z,101056.84
2023-01-06T09:59:40.542Z,101055.84
2023-01-06T10:02:12.107Z,101037.28
2023-01-06T10:04:44.173Z,101038.16
2023-01-06T10:07:15.709Z,101033.69
2023-01-06T10:09:47.384Z,101028.84
2023-01-06T10:12:18.913Z,101029.28
2023-01-06T10:14:50.689Z,101016.66
2023-01-06T10:17:22.234Z,101011.16
2023-01-06T10:19:54.082Z,101008.13
2023-01-06T10:22:25.594Z,101003.50
2023-01-06T10:24:57.459Z,101001.69
2023-01-06T10:27:29.063Z,100987.91
2023-01-06T10:30:00.952Z,100988.78
2023-01-06T10:32:32.541Z,100992.97
2023-01-06T10:35:04.757Z,100981.03
2023-01-06T10:37:36.339Z,100981.75
2023-01-06T10:40:08.202Z,100977.97
2023-01-06T10:43:00.648Z,100979.88
2023-01-06T10:45:32.203Z,100972.63
2023-01-06T10:48:04.023Z,100972.16
2023-01-06T10:50:35.662Z,100968.28
2023-01-06T10:53:07.458Z,100958.72
2023-01-06T10:55:39.087Z,100956.09
2023-01-06T10:58:10.940Z,100959.94
2023-01-06T11:00:42.496Z,100959.19
2023-01-06T11:03:31.864Z,100962.88
2023-01-06T11:06:04.591Z,100966.16
2023-01-06T11:08:36.375Z,100966.56
2023-01-06T11:11:08.104Z,100962.28
2023-01-06T11:13:41.061Z,100957.56
2023-01-06T11:16:12.608Z,100953.44
2023-01-06T11:18:44.430Z,100947.28
2023-01-06T11:21:18.723Z,100945.06
2023-01-06T11:23:50.730Z,100935.66
2023-01-06T11:26:23.582Z,100937.09
2023-01-06T11:28:55.698Z,100928.88
2023-01-06T11:31:27.213Z,100928.53
2023-01-06T11:33:59.092Z,100927.69
2023-01-06T11:36:31.068Z,100928.50
2023-01-06T11:39:02.911Z,100922.38
2023-01-06T11:41:34.413Z,100922.81
2023-01-06T11:44:06.187Z,100920.16
2023-01-06T11:46:37.722Z,100917.91
2023-01-06T11:49:09.673Z,100913.00
2023-01-06T11:51:41.249Z,100913.41
2023-01-06T11:54:13.092Z,100915.84
2023-01-06T11:56:44.608Z,100905.22
2023-01-06T11:59:16.310Z,100922.41
2023-01-06T12:01:47.962Z,100922.81
2023-01-06T12:04:19.937Z,100914.66
2023-01-06T12:06:51.410Z,100900.75
2023-01-06T12:09:23.422Z,100895.63
2023-01-06T12:11:55.509Z,100902.78
2023-01-06T12:14:29.465Z,100897.44
2023-01-06T12:17:01.556Z,100893.34
2023-01-06T12:19:33.565Z,100893.34
2023-01-06T12:22:05.063Z,100765.38
2023-01-06T12:24:36.951Z,100889.28
2023-01-06T12:27:08.483Z,100892.16
2023-01-06T12:29:40.150Z,100880.47
2023-01-06T12:32:11.706Z,100881.06
2023-01-06T12:34:46.093Z,100877.75
2023-01-06T12:37:17.631Z,100885.28
2023-01-06T12:39:49.434Z,100875.66
2023-01-06T12:42:20.909Z,100875.06
2023-01-06T12:44:52.707Z,100864.19
2023-01-06T12:47:24.376Z,100869.47
2023-01-06T12:49:56.563Z,100864.81
2023-01-06T12:52:28.046Z,100861.31
2023-01-06T12:55:00.796Z,100863.75
2023-01-06T12:57:32.377Z,100860.25
2023-01-06T13:00:03.929Z,100866.19
2023-01-06T13:02:36.484Z,100861.06
2023-01-06T13:05:08.029Z,100860.91
2023-01-06T13:07:39.953Z,100872.09
2023-01-06T13:10:11.612Z,100865.34
2023-01-06T13:12:43.545Z,100865.31
2023-01-06T13:15:15.026Z,100871.91
2023-01-06T13:17:47.198Z,100872.72
2023-01-06T13:20:18.735Z,100877.16
2023-01-06T13:22:50.689Z,100874.28
2023-01-06T13:25:22.168Z,100868.34
2023-01-06T13:27:54.121Z,100878.53
2023-01-06T13:30:25.630Z,100874.84
2023-01-06T13:32:57.593Z,100874.84
2023-01-06T13:35:29.088Z,100874.16
2023-01-06T13:38:01.157Z,100882.03
2023-01-06T13:40:32.749Z,100889.59
2023-01-06T13:43:04.595Z,100887.97
2023-01-06T13:45:36.221Z,100876.91
2023-01-06T13:48:09.460Z,100892.03
2023-01-06T13:50:41.024Z,100893.63
2023-01-06T13:53:12.825Z,100899.00
2023-01-06T13:55:44.322Z,100892.66
2023-01-06T13:58:17.058Z,100902.53
2023-01-06T14:00:48.586Z,100902.09
2023-01-06T14:03:20.405Z,100906.00
2023-01-06T14:05:51.918Z,100903.94
2023-01-06T14:08:23.893Z,100900.69
2023-01-06T14:10:55.390Z,100919.72
2023-01-06T14:13:27.359Z,100928.13
2023-01-06T14:15:58.933Z,100926.28
2023-01-06T14:18:31.081Z,100926.91
2023-01-06T14:21:02.660Z,100917.47
2023-01-06T14:23:34.820Z,100931.63
2023-01-06T14:26:06.352Z,100939.00
2023-01-06T14:28:38.291Z,100939.81
2023-01-06T14:31:09.848Z,100940.44
2023-01-06T14:33:41.877Z,100929.38
2023-01-06T14:36:13.431Z,100942.91
2023-01-06T14:38:45.334Z,100947.22
2023-01-06T14:41:16.913Z,100939.47
2023-01-06T14:43:48.800Z,100937.19
2023-01-06T14:46:20.448Z,100940.88
2023-01-06T14:48:52.353Z,100950.31
2023-01-06T14:51:24.130Z,100946.66
2023-01-06T14:53:56.101Z,100936.84
2023-01-06T14:56:27.659Z,100948.13
2023-01-06T14:58:59.563Z,100947.53
2023-01-06T15:01:31.141Z,100944.88
2023-01-06T15:04:03.141Z,100951.03
2023-01-06T15:06:34.926Z,100956.75
2023-01-06T15:09:06.721Z,100952.25
2023-01-06T15:11:38.247Z,100951.03
2023-01-06T15:14:10.262Z,100963.72
2023-01-06T15:16:41.791Z,100963.50
2023-01-06T15:19:13.785Z,100961.25
2023-01-06T15:21:47.748Z,100962.91
2023-01-06T15:24:19.867Z,100973.75
2023-01-06T15:26:51.436Z,100977.22
2023-01-06T15:29:23.344Z,100979.88
2023-01-06T15:31:54.995Z,100981.53
2023-01-06T15:34:26.505Z,100983.78
2023-01-06T15:36:58.027Z,100984.19
2023-01-06T15:39:29.880Z,100985.03
2023-01-06T15:42:02.019Z,100995.28
2023-01-06T15:44:33.762Z,100997.94
2023-01-06T15:47:05.261Z,101000.19
2023-01-06T15:49:37.073Z,101015.34
2023-01-06T15:52:08.567Z,101012.06
2023-01-06T15:54:40.362Z,101024.75
2023-01-06T15:57:16.612Z,101024.75
2023-01-06T15:59:48.478Z,101030.69
2023-01-06T16:02:20.087Z,101022.31
2023-01-06T16:04:52.366Z,101019.84
2023-01-06T16:07:23.877Z,101021.47
2023-01-06T16:09:55.711Z,101033.75
2023-01-06T16:12:27.228Z,101037.44
2023-01-06T16:14:59.151Z,101039.28
2023-01-06T16:17:35.073Z,101039.50
2023-01-06T16:20:06.858Z,101043.59
2023-01-06T16:22:38.781Z,101041.13
2023-01-06T16:25:10.323Z,101043.38
2023-01-06T16:27:42.161Z,101042.97
2023-01-06T16:30:13.659Z,101048.50
2023-01-06T16:32:47.207Z,101044.81
2023-01-06T16:35:18.958Z,101052.00
2023-01-06T16:37:52.807Z,101051.78
2023-01-06T16:43:02.018Z,101064.69
2023-01-06T16:45:34.215Z,101067.34
2023-01-06T16:48:06.071Z,101067.34
2023-01-06T16:50:38.233Z,101063.84
2023-01-06T16:53:10.149Z,101069.38
2023-01-06T16:55:41.917Z,101065.25
2023-01-06T16:58:13.786Z,101072.22
2023-01-06T17:00:51.125Z,101073.03
2023-01-06T17:03:23.072Z,101070.56
2023-01-06T17:05:54.628Z,101075.06
2023-01-06T17:08:26.567Z,101081.00
2023-01-06T17:10:58.075Z,101089.81
2023-01-06T17:13:35.876Z,101098.22
2023-01-06T17:16:07.471Z,101097.78
2023-01-06T17:18:39.284Z,101092.47
2023-01-06T17:21:10.734Z,101102.09
2023-01-06T17:23:42.532Z,101109.66
2023-01-06T17:26:14.037Z,101115.00
2023-01-06T17:28:46.033Z,101121.75
2023-01-06T17:31:17.646Z,101122.97
2023-01-06T17:33:49.497Z,101121.34
2023-01-06T17:36:21.027Z,101130.75
2023-01-06T17:38:52.634Z,101131.34
2023-01-06T17:41:24.191Z,101133.00
2023-01-06T17:43:56.032Z,101140.34
2023-01-06T17:46:27.550Z,101143.81
2023-01-06T17:48:59.411Z,101140.94
2023-01-06T17:51:30.937Z,101145.03
2023-01-06T17:54:21.717Z,101144.41
2023-01-06T17:56:53.235Z,101146.44
2023-01-06T17:59:24.739Z,101151.16
2023-01-06T18:01:56.327Z,101149.50
2023-01-06T18:04:27.884Z,101157.88
2023-01-06T18:06:59.510Z,101156.25
2023-01-06T18:09:31.456Z,101160.53
2023-01-06T18:12:03.523Z,101163.41
2023-01-06T18:14:36.465Z,101160.53
2023-01-06T18:17:07.959Z,101167.09
2023-01-06T18:19:39.585Z,101172.97
2023-01-06T18:22:11.141Z,101166.00
2023-01-06T18:24:43.292Z,101172.53
2023-01-06T18:27:14.938Z,101167.19
2023-01-06T18:29:46.829Z,101159.41
2023-01-06T18:32:18.319Z,101157.16
2023-01-06T18:34:50.068Z,101165.34
2023-01-06T18:37:21.572Z,101167.38
2023-01-06T18:39:53.366Z,101164.72
2023-01-06T18:42:24.904Z,101162.88
2023-01-06T18:44:57.064Z,101168.78
2023-01-06T18:47:28.549Z,101169.56
2023-01-06T18:50:00.878Z,101164.44
2023-01-06T18:52:32.350Z,101163.19
2023-01-06T18:55:05.042Z,101172.00
2023-01-06T18:57:36.574Z,101170.09
2023-01-06T19:00:08.526Z,101170.09
2023-01-06T19:02:40.022Z,101169.28
2023-01-06T19:05:11.922Z,101171.50
2023-01-06T19:07:43.432Z,101172.91
2023-01-06T19:10:15.354Z,101176.53
2023-01-06T19:12:46.877Z,101183.03
2023-01-06T19:15:18.692Z,101179.94
2023-01-06T19:17:51.297Z,101182.59
2023-01-06T19:20:23.461Z,101183.81
2023-01-06T19:22:57.792Z,101185.84
2023-01-06T19:25:29.802Z,101187.88
2023-01-06T19:28:01.279Z,101189.44
2023-01-06T19:30:33.146Z,101190.25
2023-01-06T19:33:04.615Z,101199.63
2023-01-06T19:35:36.471Z,101188.38
2023-01-06T19:38:07.957Z,101202.03
2023-01-06T19:40:39.658Z,101203.44
2023-01-06T19:43:11.157Z,101204.63
2023-01-06T19:45:43.034Z,101209.13
2023-01-06T19:48:14.853Z,101217.91
2023-01-06T19:50:46.705Z,101211.34
2023-01-06T19:53:18.228Z,101213.19
2023-01-06T19:55:50.024Z,101213.56
2023-01-06T19:58:21.493Z,101206.78
2023-01-06T20:00:55.959Z,101217.81
2023-01-06T20:03:27.829Z,101216.34
2023-01-06T20:05:59.344Z,101210.78
2023-01-06T20:08:31.202Z,101217.28
2023-01-06T20:11:02.676Z,101219.56
2023-01-06T20:13:34.539Z,101211.78
2023-01-06T20:16:06.198Z,101226.72
2023-01-06T20:18:38.001Z,101229.19
2023-01-06T20:21:09.494Z,101237.34
2023-01-06T20:23:41.359Z,101231.38
2023-01-06T20:26:14.614Z,101230.72
2023-01-06T20:28:46.773Z,101230.28
2023-01-06T20:31:18.331Z,101238.63
2023-01-06T20:33:50.116Z,101241.22
2023-01-06T20:36:21.611Z,101238.94
2023-01-06T20:38:53.381Z,101233.00
2023-01-06T20:41:24.937Z,101232.44
2023-01-06T20:43:56.648Z,101234.25
2023-01-06T20:46:28.168Z,101235.72
2023-01-06T20:48:59.745Z,101230.22
2023-01-06T20:51:31.460Z,101221.88
2023-01-06T20:54:03.360Z,101227.38
2023-01-06T20:56:34.822Z,101236.16
2023-01-06T20:59:06.338Z,101233.13
2023-01-06T21:01:39.476Z,101241.72
2023-01-06T21:04:11.171Z,101236.59
2023-01-06T21:06:42.779Z,101243.38
2023-01-06T21:09:17.594Z,101237.25
2023-01-06T21:11:49.101Z,101244.00
2023-01-06T21:14:20.713Z,101255.63
2023-01-06T21:16:52.310Z,101249.59
2023-01-06T21:19:24.051Z,101246.94
2023-01-06T21:21:55.529Z,101247.38
2023-01-06T21:24:27.434Z,101252.06
2023-01-06T21:26:59.020Z,101252.25
2023-01-06T21:29:30.827Z,101255.09
2023-01-06T21:32:02.388Z,101260.41
2023-01-06T21:34:34.172Z,101261.38
2023-01-06T21:37:06.028Z,101250.97
2023-01-06T21:39:37.875Z,101261.94
2023-01-06T21:42:28.314Z,101257.66
2023-01-06T21:45:00.160Z,101256.00
2023-01-06T21:47:31.640Z,101264.53
2023-01-06T21:50:03.496Z,101255.31
2023-01-06T21:52:35.009Z,101250.56
2023-01-06T21:55:06.566Z,101260.34
2023-01-06T21:57:38.087Z,101264.84
2023-01-06T22:00:13.051Z,101263.38
2023-01-06T22:02:44.582Z,101270.34
2023-01-06T22:05:16.461Z,101268.50
2023-01-06T22:07:48.041Z,101272.81
2023-01-06T22:10:19.590Z,101269.69
2023-01-06T22:12:52.649Z,101266.22
2023-01-06T22:15:24.112Z,101271.53
2023-01-06T22:17:55.992Z,101267.44
2023-01-06T22:20:27.535Z,101272.53
2023-01-06T22:22:59.500Z,101269.44
2023-01-06T22:25:31.059Z,101272.91
2023-01-06T22:28:03.632Z,101270.00
2023-01-06T22:30:35.244Z,101268.69
2023-01-06T22:33:07.031Z,101274.00
2023-01-06T22:35:38.524Z,101274.00
2023-01-06T22:38:10.065Z,101275.66
2023-01-06T22:40:41.695Z,101275.38
2023-01-06T22:43:14.945Z,101278.22
2023-01-06T22:45:46.489Z,101276.41
2023-01-06T22:48:18.007Z,101282.06
2023-01-06T22:50:49.480Z,101278.41
2023-01-06T22:53:21.345Z,101282.06
2023-01-06T22:55:52.886Z,101276.75
2023-01-06T22:58:24.829Z,101280.44
2023-01-06T23:00:56.321Z,101275.94
2023-01-06T23:03:28.319Z,101276.50
2023-01-06T23:05:59.856Z,101268.34
2023-01-06T23:08:31.710Z,101270.56
2023-01-06T23:11:03.639Z,101269.84
2023-01-06T23:13:35.564Z,101271.66
2023-01-06T23:16:07.168Z,101272.03
2023-01-06T23:18:39.002Z,101277.72
2023-01-06T23:21:10.493Z,101273.78
2023-01-06T23:23:42.401Z,101270.38
2023-01-06T23:26:14.011Z,101265.25
2023-01-06T23:28:45.909Z,101268.09
2023-01-06T23:31:17.480Z,101251.72
2023-01-06T23:33:49.068Z,101252.09
2023-01-06T23:36:20.611Z,101260.41
2023-01-06T23:38:52.477Z,101266.28
2023-01-06T23:41:24.054Z,101273.47
2023-01-06T23:43:55.973Z,101275.81
2023-01-06T23:46:27.531Z,101276.38
2023-01-06T23:48:59.535Z,101278.75
2023-01-06T23:51:32.221Z,101272.63
2023-01-06T23:54:04.298Z,101286.22
2023-01-06T23:56:35.838Z,101284.75
2023-01-06T23:59:07.651Z,101315.09
